UAL402 KBOS-KSYR
Flight info
| Callsign | UAL402 |
|---|---|
| Flight time | 0h 46m |
| Altitude | 32000 |
| Route | HYLND7 HYLND MANCH CAM LAMMS/N0381F160 T608 SYR |
| Aircraft | B38M/M-SDE1FGHILORVWXY/HB1 |
Departure
| Time | 2026-04-16 22:17 |
|---|---|
| Airport | Boston Logan International Airport (KBOS) |
Arrival
| Time | 2026-04-16 23:03 |
|---|---|
| Airport | Syracuse Hancock International Airport (KSYR) |
| Time | Latitude | Longitude | Altitude | Speed | Heading |
|---|---|---|---|---|---|
| 2026-04-16 21:51 | 42.36135 | -71.02019 | 27 ft | 0 kts | 24° |
| 2026-04-16 22:03 | 42.36127 | -71.02024 | 27 ft | 3 kts | 24° |
| 2026-04-16 22:03 | 42.36110 | -71.02034 | 27 ft | 3 kts | 24° |
| 2026-04-16 22:04 | 42.36087 | -71.02048 | 27 ft | 4 kts | 24° |
| 2026-04-16 22:04 | 42.36061 | -71.02064 | 27 ft | 4 kts | 24° |
| 2026-04-16 22:04 | 42.36044 | -71.02076 | 28 ft | 2 kts | 54° |
| 2026-04-16 22:04 | 42.36041 | -71.02095 | 28 ft | 2 kts | 113° |
| 2026-04-16 22:05 | 42.36042 | -71.02099 | 28 ft | 0 kts | 120° |
| 2026-04-16 22:12 | 42.36039 | -71.02093 | 28 ft | 4 kts | 120° |
| 2026-04-16 22:12 | 42.36001 | -71.02006 | 29 ft | 17 kts | 121° |
| 2026-04-16 22:12 | 42.35939 | -71.01864 | 30 ft | 18 kts | 120° |
| 2026-04-16 22:12 | 42.35906 | -71.01724 | 33 ft | 15 kts | 101° |
| 2026-04-16 22:13 | 42.35848 | -71.01660 | 32 ft | 10 kts | 157° |
| 2026-04-16 22:13 | 42.35815 | -71.01589 | 32 ft | 9 kts | 105° |
| 2026-04-16 22:13 | 42.35794 | -71.01504 | 33 ft | 10 kts | 110° |
| 2026-04-16 22:13 | 42.35767 | -71.01403 | 32 ft | 13 kts | 110° |
| 2026-04-16 22:14 | 42.35746 | -71.01331 | 30 ft | 0 kts | 116° |
| 2026-04-16 22:14 | 42.35731 | -71.01298 | 28 ft | 11 kts | 140° |
| 2026-04-16 22:14 | 42.35667 | -71.01302 | 29 ft | 0 kts | 195° |
| 2026-04-16 22:15 | 42.35665 | -71.01303 | 29 ft | 1 kts | 195° |
| 2026-04-16 22:15 | 42.35636 | -71.01312 | 29 ft | 9 kts | 190° |
| 2026-04-16 22:15 | 42.35583 | -71.01292 | 29 ft | 6 kts | 111° |
| 2026-04-16 22:15 | 42.35586 | -71.01231 | 30 ft | 0 kts | 77° |
| 2026-04-16 22:16 | 42.35588 | -71.01223 | 30 ft | 12 kts | 77° |
| 2026-04-16 22:17 | 42.35681 | -71.00695 | 25 ft | 101 kts | 76° |
| 2026-04-16 22:17 | 42.35908 | -70.99427 | 30 ft | 174 kts | 76° |
| 2026-04-16 22:17 | 42.36186 | -70.97836 | 307 ft | 176 kts | 78° |
| 2026-04-16 22:17 | 42.36452 | -70.96177 | 814 ft | 191 kts | 79° |
| 2026-04-16 22:18 | 42.36740 | -70.94342 | 1607 ft | 192 kts | 77° |
| 2026-04-16 22:18 | 42.37050 | -70.92578 | 2614 ft | 201 kts | 77° |
| 2026-04-16 22:18 | 42.37392 | -70.90642 | 3224 ft | 223 kts | 77° |
| 2026-04-16 22:18 | 42.37771 | -70.88497 | 3840 ft | 245 kts | 77° |
| 2026-04-16 22:19 | 42.38181 | -70.86172 | 4562 ft | 263 kts | 77° |
| 2026-04-16 22:19 | 42.38614 | -70.83716 | 5484 ft | 269 kts | 76° |
| 2026-04-16 22:19 | 42.39382 | -70.81407 | 6483 ft | 273 kts | 51° |
| 2026-04-16 22:19 | 42.40803 | -70.79706 | 7458 ft | 276 kts | 36° |
| 2026-04-16 22:20 | 42.42373 | -70.78162 | 8374 ft | 281 kts | 35° |
| 2026-04-16 22:20 | 42.44135 | -70.77022 | 9288 ft | 283 kts | 11° |
| 2026-04-16 22:20 | 42.46102 | -70.77016 | 10153 ft | 287 kts | 346° |
| 2026-04-16 22:20 | 42.48017 | -70.77938 | 10793 ft | 301 kts | 338° |
| 2026-04-16 22:21 | 42.50015 | -70.79060 | 11186 ft | 321 kts | 334° |
| 2026-04-16 22:21 | 42.51842 | -70.80920 | 11565 ft | 339 kts | 311° |
| 2026-04-16 22:21 | 42.53278 | -70.83534 | 12067 ft | 352 kts | 306° |
| 2026-04-16 22:21 | 42.54756 | -70.86225 | 12783 ft | 357 kts | 308° |
| 2026-04-16 22:22 | 42.56290 | -70.88892 | 13533 ft | 361 kts | 308° |
| 2026-04-16 22:22 | 42.57843 | -70.91616 | 13975 ft | 367 kts | 308° |
| 2026-04-16 22:22 | 42.59401 | -70.94361 | 14089 ft | 366 kts | 307° |
| 2026-04-16 22:22 | 42.60952 | -70.97100 | 14119 ft | 366 kts | 307° |
| 2026-04-16 22:23 | 42.62501 | -70.99838 | 14118 ft | 366 kts | 307° |
| 2026-04-16 22:23 | 42.64054 | -71.02585 | 14232 ft | 368 kts | 307° |
| 2026-04-16 22:23 | 42.65612 | -71.05345 | 14981 ft | 368 kts | 307° |
| 2026-04-16 22:23 | 42.67179 | -71.08125 | 15643 ft | 373 kts | 307° |
| 2026-04-16 22:24 | 42.68762 | -71.10933 | 16281 ft | 376 kts | 307° |
| 2026-04-16 22:24 | 42.70362 | -71.13774 | 16916 ft | 380 kts | 307° |
| 2026-04-16 22:24 | 42.71974 | -71.16638 | 17532 ft | 383 kts | 307° |
| 2026-04-16 22:24 | 42.73600 | -71.19533 | 18121 ft | 387 kts | 307° |
| 2026-04-16 22:25 | 42.75222 | -71.22421 | 18688 ft | 390 kts | 307° |
| 2026-04-16 22:25 | 42.76875 | -71.25367 | 19258 ft | 394 kts | 307° |
| 2026-04-16 22:25 | 42.78726 | -71.28114 | 19789 ft | 397 kts | 321° |
| 2026-04-16 22:25 | 42.80924 | -71.30414 | 20310 ft | 400 kts | 322° |
| 2026-04-16 22:26 | 42.83126 | -71.32759 | 20804 ft | 404 kts | 322° |
| 2026-04-16 22:26 | 42.85190 | -71.35364 | 21299 ft | 406 kts | 308° |
| 2026-04-16 22:26 | 42.86606 | -71.38688 | 21803 ft | 409 kts | 291° |
| 2026-04-16 22:26 | 42.87277 | -71.42458 | 22258 ft | 412 kts | 277° |
| 2026-04-16 22:27 | 42.87615 | -71.46350 | 22725 ft | 415 kts | 276° |
| 2026-04-16 22:27 | 42.87928 | -71.50268 | 23185 ft | 418 kts | 276° |
| 2026-04-16 22:27 | 42.88225 | -71.54218 | 23632 ft | 421 kts | 276° |
| 2026-04-16 22:27 | 42.88510 | -71.58201 | 24063 ft | 424 kts | 276° |
| 2026-04-16 22:28 | 42.88790 | -71.62212 | 24486 ft | 426 kts | 275° |
| 2026-04-16 22:28 | 42.89070 | -71.66251 | 24893 ft | 429 kts | 275° |
| 2026-04-16 22:28 | 42.89350 | -71.70318 | 25287 ft | 432 kts | 275° |
| 2026-04-16 22:28 | 42.89630 | -71.74413 | 25670 ft | 435 kts | 275° |
| 2026-04-16 22:29 | 42.89911 | -71.78533 | 26055 ft | 438 kts | 275° |
| 2026-04-16 22:29 | 42.90192 | -71.82677 | 26424 ft | 440 kts | 275° |
| 2026-04-16 22:29 | 42.90472 | -71.86833 | 26890 ft | 440 kts | 275° |
| 2026-04-16 22:29 | 42.90747 | -71.90935 | 27350 ft | 439 kts | 275° |
| 2026-04-16 22:30 | 42.91027 | -71.95134 | 27829 ft | 439 kts | 275° |
| 2026-04-16 22:30 | 42.91303 | -71.99297 | 28000 ft | 444 kts | 275° |
| 2026-04-16 22:30 | 42.91578 | -72.03468 | 27994 ft | 450 kts | 275° |
| 2026-04-16 22:30 | 42.91857 | -72.07727 | 27996 ft | 451 kts | 275° |
| 2026-04-16 22:31 | 42.92411 | -72.16261 | 27996 ft | 451 kts | 275° |
| 2026-04-16 22:31 | 42.92959 | -72.24788 | 28003 ft | 451 kts | 275° |
| 2026-04-16 22:32 | 42.93500 | -72.33306 | 27998 ft | 450 kts | 275° |
| 2026-04-16 22:32 | 42.93768 | -72.37572 | 27995 ft | 451 kts | 275° |
| 2026-04-16 22:32 | 42.94035 | -72.41830 | 28003 ft | 451 kts | 275° |
| 2026-04-16 22:33 | 42.94563 | -72.50356 | 27997 ft | 451 kts | 275° |
| 2026-04-16 22:33 | 42.95085 | -72.58887 | 28000 ft | 451 kts | 275° |
| 2026-04-16 22:34 | 42.95601 | -72.67410 | 28001 ft | 450 kts | 275° |
| 2026-04-16 22:34 | 42.95856 | -72.71674 | 27997 ft | 451 kts | 275° |
| 2026-04-16 22:34 | 42.96110 | -72.75936 | 28002 ft | 451 kts | 275° |
| 2026-04-16 22:35 | 42.96614 | -72.84485 | 28000 ft | 452 kts | 274° |
| 2026-04-16 22:35 | 42.96864 | -72.88760 | 27996 ft | 452 kts | 274° |
| 2026-04-16 22:35 | 42.97112 | -72.93036 | 28000 ft | 452 kts | 274° |
| 2026-04-16 22:36 | 42.97604 | -73.01596 | 28002 ft | 452 kts | 274° |
| 2026-04-16 22:36 | 42.97847 | -73.05875 | 27998 ft | 452 kts | 274° |
| 2026-04-16 22:36 | 42.98089 | -73.10158 | 27999 ft | 453 kts | 274° |
| 2026-04-16 22:37 | 42.98569 | -73.18727 | 28003 ft | 451 kts | 274° |
| 2026-04-16 22:37 | 42.98804 | -73.22941 | 28000 ft | 451 kts | 274° |
| 2026-04-16 22:37 | 42.99040 | -73.27211 | 28003 ft | 451 kts | 274° |
| 2026-04-16 22:38 | 42.99432 | -73.35756 | 28003 ft | 451 kts | 271° |
| 2026-04-16 22:38 | 42.99624 | -73.44309 | 27999 ft | 450 kts | 272° |
| 2026-04-16 22:39 | 42.99728 | -73.48584 | 27997 ft | 450 kts | 272° |
| 2026-04-16 22:39 | 42.99833 | -73.52862 | 28001 ft | 450 kts | 272° |
| 2026-04-16 22:39 | 43.00037 | -73.61408 | 28002 ft | 450 kts | 272° |
| 2026-04-16 22:40 | 43.00235 | -73.69918 | 27792 ft | 446 kts | 272° |
| 2026-04-16 22:40 | 43.00331 | -73.74149 | 27607 ft | 445 kts | 271° |
| 2026-04-16 22:40 | 43.00425 | -73.78372 | 27775 ft | 446 kts | 271° |
| 2026-04-16 22:41 | 43.00518 | -73.82622 | 27945 ft | 449 kts | 271° |
| 2026-04-16 22:41 | 43.00610 | -73.86895 | 28010 ft | 451 kts | 271° |
| 2026-04-16 22:41 | 43.00701 | -73.91170 | 27998 ft | 450 kts | 271° |
| 2026-04-16 22:41 | 43.00790 | -73.95439 | 28000 ft | 450 kts | 271° |
| 2026-04-16 22:42 | 43.00877 | -73.99708 | 27996 ft | 450 kts | 271° |
| 2026-04-16 22:42 | 43.00963 | -74.03980 | 28001 ft | 450 kts | 271° |
| 2026-04-16 22:42 | 43.01130 | -74.12494 | 27997 ft | 450 kts | 271° |
| 2026-04-16 22:43 | 43.01290 | -74.21085 | 28001 ft | 450 kts | 271° |
| 2026-04-16 22:43 | 43.01368 | -74.25360 | 27980 ft | 447 kts | 271° |
| 2026-04-16 22:43 | 43.01443 | -74.29579 | 27305 ft | 445 kts | 271° |
| 2026-04-16 22:44 | 43.01517 | -74.33802 | 26696 ft | 443 kts | 271° |
| 2026-04-16 22:44 | 43.01589 | -74.37985 | 26204 ft | 437 kts | 271° |
| 2026-04-16 22:44 | 43.01658 | -74.42126 | 25626 ft | 434 kts | 271° |
| 2026-04-16 22:44 | 43.01725 | -74.46235 | 25106 ft | 431 kts | 271° |
| 2026-04-16 22:45 | 43.01790 | -74.50308 | 24558 ft | 428 kts | 271° |
| 2026-04-16 22:45 | 43.01854 | -74.54350 | 24047 ft | 424 kts | 271° |
| 2026-04-16 22:45 | 43.01850 | -74.58360 | 23502 ft | 421 kts | 265° |
| 2026-04-16 22:45 | 43.01284 | -74.62248 | 23006 ft | 416 kts | 254° |
| 2026-04-16 22:46 | 43.00547 | -74.66009 | 22445 ft | 414 kts | 256° |
| 2026-04-16 22:46 | 42.99844 | -74.69803 | 21992 ft | 410 kts | 256° |
| 2026-04-16 22:46 | 42.99157 | -74.73566 | 21481 ft | 407 kts | 256° |
| 2026-04-16 22:46 | 42.98479 | -74.77304 | 20976 ft | 404 kts | 256° |
| 2026-04-16 22:47 | 42.97808 | -74.81014 | 20488 ft | 401 kts | 256° |
| 2026-04-16 22:47 | 42.97141 | -74.84695 | 20001 ft | 398 kts | 256° |
| 2026-04-16 22:47 | 42.96477 | -74.88351 | 19513 ft | 395 kts | 256° |
| 2026-04-16 22:47 | 42.95817 | -74.91986 | 19020 ft | 393 kts | 256° |
| 2026-04-16 22:48 | 42.95160 | -74.95592 | 18546 ft | 390 kts | 256° |
| 2026-04-16 22:48 | 42.94506 | -74.99171 | 18142 ft | 386 kts | 256° |
| 2026-04-16 22:48 | 42.93865 | -75.02675 | 17628 ft | 375 kts | 256° |
| 2026-04-16 22:48 | 42.93238 | -75.06098 | 17071 ft | 371 kts | 256° |
| 2026-04-16 22:49 | 42.92617 | -75.09479 | 16787 ft | 364 kts | 256° |
| 2026-04-16 22:49 | 42.92004 | -75.12813 | 16397 ft | 361 kts | 256° |
| 2026-04-16 22:49 | 42.91394 | -75.16126 | 15970 ft | 359 kts | 256° |
| 2026-04-16 22:49 | 42.90787 | -75.19418 | 15469 ft | 355 kts | 256° |
| 2026-04-16 22:50 | 42.90186 | -75.22672 | 14971 ft | 353 kts | 256° |
| 2026-04-16 22:50 | 42.89586 | -75.25910 | 14475 ft | 351 kts | 256° |
| 2026-04-16 22:50 | 42.88990 | -75.29127 | 13978 ft | 349 kts | 256° |
| 2026-04-16 22:50 | 42.88395 | -75.32327 | 13491 ft | 348 kts | 256° |
| 2026-04-16 22:51 | 42.87803 | -75.35513 | 12994 ft | 346 kts | 256° |
| 2026-04-16 22:51 | 42.87212 | -75.38684 | 12495 ft | 344 kts | 256° |
| 2026-04-16 22:51 | 42.86622 | -75.41846 | 11929 ft | 344 kts | 256° |
| 2026-04-16 22:51 | 42.86035 | -75.44987 | 11300 ft | 339 kts | 256° |
| 2026-04-16 22:52 | 42.85456 | -75.48074 | 10668 ft | 334 kts | 256° |
| 2026-04-16 22:52 | 42.84885 | -75.51123 | 10068 ft | 330 kts | 256° |
| 2026-04-16 22:52 | 42.84320 | -75.54128 | 9444 ft | 326 kts | 256° |
| 2026-04-16 22:52 | 42.83769 | -75.57058 | 8831 ft | 321 kts | 256° |
| 2026-04-16 22:53 | 42.83217 | -75.59985 | 8223 ft | 317 kts | 256° |
| 2026-04-16 22:53 | 42.82673 | -75.62869 | 7654 ft | 312 kts | 256° |
| 2026-04-16 22:53 | 42.82137 | -75.65702 | 7084 ft | 307 kts | 256° |
| 2026-04-16 22:53 | 42.81608 | -75.68496 | 6514 ft | 303 kts | 256° |
| 2026-04-16 22:54 | 42.81085 | -75.71255 | 5946 ft | 299 kts | 256° |
| 2026-04-16 22:54 | 42.80568 | -75.73980 | 5354 ft | 296 kts | 256° |
| 2026-04-16 22:54 | 42.80055 | -75.76680 | 4786 ft | 293 kts | 255° |
| 2026-04-16 22:54 | 42.79616 | -75.79365 | 4279 ft | 287 kts | 267° |
| 2026-04-16 22:55 | 42.79965 | -75.81903 | 4171 ft | 266 kts | 299° |
| 2026-04-16 22:55 | 42.81212 | -75.83571 | 4106 ft | 244 kts | 336° |
| 2026-04-16 22:55 | 42.82748 | -75.84223 | 4109 ft | 218 kts | 343° |
| 2026-04-16 22:55 | 42.84108 | -75.84776 | 4090 ft | 190 kts | 342° |
| 2026-04-16 22:56 | 42.85336 | -75.85277 | 4051 ft | 182 kts | 343° |
| 2026-04-16 22:56 | 42.86545 | -75.85769 | 4041 ft | 181 kts | 343° |
| 2026-04-16 22:56 | 42.87757 | -75.86262 | 4036 ft | 181 kts | 343° |
| 2026-04-16 22:56 | 42.88965 | -75.86753 | 4029 ft | 182 kts | 343° |
| 2026-04-16 22:57 | 42.90180 | -75.87247 | 4026 ft | 182 kts | 343° |
| 2026-04-16 22:57 | 42.91394 | -75.87740 | 4023 ft | 183 kts | 342° |
| 2026-04-16 22:57 | 42.92607 | -75.88228 | 4002 ft | 181 kts | 345° |
| 2026-04-16 22:57 | 42.93841 | -75.88623 | 3845 ft | 183 kts | 347° |
| 2026-04-16 22:58 | 42.95077 | -75.89007 | 3599 ft | 182 kts | 346° |
| 2026-04-16 22:58 | 42.96299 | -75.89444 | 3352 ft | 180 kts | 335° |
| 2026-04-16 22:58 | 42.97268 | -75.90474 | 3305 ft | 178 kts | 315° |
| 2026-04-16 22:58 | 42.98141 | -75.91630 | 3284 ft | 169 kts | 315° |
| 2026-04-16 22:59 | 42.98933 | -75.92701 | 3121 ft | 155 kts | 315° |
| 2026-04-16 22:59 | 42.99700 | -75.93694 | 3104 ft | 151 kts | 315° |
| 2026-04-16 22:59 | 43.00441 | -75.94719 | 3111 ft | 152 kts | 313° |
| 2026-04-16 22:59 | 43.01173 | -75.95754 | 3045 ft | 151 kts | 313° |
| 2026-04-16 23:00 | 43.01899 | -75.96783 | 2994 ft | 151 kts | 313° |
| 2026-04-16 23:00 | 43.02628 | -75.97815 | 2926 ft | 151 kts | 313° |
| 2026-04-16 23:00 | 43.03350 | -75.98854 | 2744 ft | 150 kts | 309° |
| 2026-04-16 23:00 | 43.03914 | -76.00052 | 2436 ft | 150 kts | 304° |
| 2026-04-16 23:01 | 43.04617 | -76.01085 | 2151 ft | 149 kts | 320° |
| 2026-04-16 23:01 | 43.05440 | -76.01924 | 1948 ft | 146 kts | 322° |
| 2026-04-16 23:01 | 43.05957 | -76.02502 | 1787 ft | 144 kts | 316° |
| 2026-04-16 23:01 | 43.06638 | -76.03485 | 1557 ft | 142 kts | 311° |
| 2026-04-16 23:02 | 43.07306 | -76.04478 | 1361 ft | 142 kts | 313° |
| 2026-04-16 23:02 | 43.08000 | -76.05435 | 1215 ft | 142 kts | 314° |
| 2026-04-16 23:02 | 43.08688 | -76.06400 | 1046 ft | 141 kts | 313° |
| 2026-04-16 23:02 | 43.09363 | -76.07375 | 885 ft | 141 kts | 313° |
| 2026-04-16 23:03 | 43.10046 | -76.08342 | 686 ft | 141 kts | 314° |
| 2026-04-16 23:03 | 43.10728 | -76.09300 | 465 ft | 140 kts | 313° |
| 2026-04-16 23:03 | 43.11303 | -76.10116 | 421 ft | 85 kts | 314° |
| 2026-04-16 23:03 | 43.11567 | -76.10491 | 422 ft | 31 kts | 314° |
| 2026-04-16 23:04 | 43.11704 | -76.10693 | 410 ft | 14 kts | 293° |
| 2026-04-16 23:04 | 43.11667 | -76.10754 | 413 ft | 9 kts | 183° |
| 2026-04-16 23:04 | 43.11605 | -76.10753 | 414 ft | 8 kts | 177° |
| 2026-04-16 23:04 | 43.11603 | -76.10753 | 414 ft | 0 kts | 178° |
| 2026-04-16 23:06 | 43.11589 | -76.10752 | 413 ft | 7 kts | 178° |
| 2026-04-16 23:06 | 43.11505 | -76.10747 | 415 ft | 15 kts | 178° |
| 2026-04-16 23:06 | 43.11421 | -76.10757 | 415 ft | 9 kts | 220° |
| 2026-04-16 23:06 | 43.11386 | -76.10822 | 420 ft | 8 kts | 228° |
| 2026-04-16 23:07 | 43.11359 | -76.10869 | 426 ft | 6 kts | 232° |
| 2026-04-16 23:07 | 43.11342 | -76.10898 | 423 ft | 0 kts | 232° |